Time;durP1;ratioP1;P1;durP2;ratioP2;P2;SDS_P1;SDS_P2;PMS_P1;PMS_P2;Temp;Humidity;BMP_temperature;BMP_pressure;BME280_temperature;BME280_humidity;BME280_pressure;Samples;Min_cycle;Max_cycle;Signal;HPM_P1;HPM_P2
2023/08/25 00:00:26;;;;;;;5.43;4.77;;;;;;;;;;5281805;28;20013;-72
2023/08/25 00:02:57;;;;;;;5.80;5.18;;;;;;;;;;5282043;28;20358;-72
2023/08/25 00:05:28;;;;;;;5.38;4.88;;;;;;;;;;5281622;28;20455;-73
2023/08/25 00:07:59;;;;;;;7.40;5.63;;;;;;;;;;5282228;28;20108;-72
2023/08/25 00:10:31;;;;;;;7.50;5.43;;;;;;;;;;5282417;28;20534;-73
2023/08/25 00:13:02;;;;;;;5.47;4.88;;;;;;;;;;5282066;28;20271;-72
2023/08/25 00:15:33;;;;;;;6.10;5.05;;;;;;;;;;5281979;28;20020;-72
2023/08/25 00:18:05;;;;;;;6.93;5.03;;;;;;;;;;5282836;28;20021;-72
2023/08/25 00:20:36;;;;;;;6.05;5.18;;;;;;;;;;5281214;28;20016;-72
2023/08/25 00:23:07;;;;;;;5.40;4.88;;;;;;;;;;5282828;28;20104;-72
2023/08/25 00:25:39;;;;;;;8.43;5.80;;;;;;;;;;5281969;28;20031;-73
2023/08/25 00:28:10;;;;;;;5.78;5.15;;;;;;;;;;5282226;28;20354;-72
2023/08/25 00:30:41;;;;;;;6.13;5.57;;;;;;;;;;5281679;28;20013;-72
2023/08/25 00:33:13;;;;;;;6.03;5.43;;;;;;;;;;5282002;28;20032;-72
2023/08/25 00:35:44;;;;;;;6.30;5.57;;;;;;;;;;5280306;28;20255;-73
2023/08/25 00:38:15;;;;;;;6.45;5.78;;;;;;;;;;5282189;28;20479;-72
2023/08/25 00:40:46;;;;;;;7.70;5.97;;;;;;;;;;5280858;28;20052;-72
2023/08/25 00:43:18;;;;;;;8.00;5.63;;;;;;;;;;5281979;28;20066;-72
2023/08/25 00:45:49;;;;;;;7.53;6.70;;;;;;;;;;5281821;28;20942;-73
2023/08/25 00:48:20;;;;;;;6.10;5.28;;;;;;;;;;5281574;28;20306;-72
2023/08/25 00:50:53;;;;;;;5.78;5.28;;;;;;;;;;5281573;28;20017;-72
2023/08/25 00:53:24;;;;;;;7.75;6.05;;;;;;;;;;5282140;28;20043;-73
2023/08/25 00:55:55;;;;;;;7.20;5.88;;;;;;;;;;5281168;28;20016;-73
2023/08/25 00:58:26;;;;;;;6.05;5.55;;;;;;;;;;5281975;28;20013;-73
2023/08/25 01:00:58;;;;;;;7.75;7.05;;;;;;;;;;5282046;28;20020;-72
2023/08/25 01:03:29;;;;;;;6.97;5.97;;;;;;;;;;5280670;28;20039;-74
2023/08/25 01:06:01;;;;;;;7.03;6.43;;;;;;;;;;5282063;28;20491;-72
2023/08/25 01:08:32;;;;;;;8.07;6.50;;;;;;;;;;5280519;28;20477;-73
2023/08/25 01:11:09;;;;;;;7.22;6.55;;;;;;;;;;5281947;28;20019;-73
2023/08/25 01:13:50;;;;;;;7.20;6.60;;;;;;;;;;5281405;28;20032;-73
2023/08/25 01:16:25;;;;;;;8.25;6.07;;;;;;;;;;5281221;28;20055;-73
2023/08/25 01:18:56;;;;;;;7.20;6.57;;;;;;;;;;5281797;28;20048;-73
2023/08/25 01:21:27;;;;;;;8.75;6.40;;;;;;;;;;5281763;28;20059;-73
2023/08/25 01:24:10;;;;;;;7.22;6.63;;;;;;;;;;5281002;28;20028;-74
2023/08/25 01:26:41;;;;;;;8.13;6.43;;;;;;;;;;5281358;28;20043;-73
2023/08/25 01:29:13;;;;;;;6.70;6.20;;;;;;;;;;5282058;28;20091;-73
2023/08/25 01:31:44;;;;;;;7.18;6.47;;;;;;;;;;5280171;28;20028;-72
2023/08/25 01:34:16;;;;;;;6.85;6.22;;;;;;;;;;5281656;28;20013;-73
2023/08/25 01:36:59;;;;;;;7.93;6.82;;;;;;;;;;5280880;28;20017;-72
2023/08/25 01:39:31;;;;;;;5.95;5.50;;;;;;;;;;5281339;28;20020;-73
2023/08/25 01:42:03;;;;;;;7.63;6.00;;;;;;;;;;5281808;28;20099;-72
2023/08/25 01:44:35;;;;;;;6.00;5.45;;;;;;;;;;5280337;28;20107;-73
2023/08/25 01:47:07;;;;;;;7.68;5.97;;;;;;;;;;5281637;28;20103;-73
2023/08/25 01:49:39;;;;;;;7.03;6.32;;;;;;;;;;5284462;28;20086;-73
2023/08/25 01:52:12;;;;;;;6.25;5.65;;;;;;;;;;5285032;28;20021;-72
2023/08/25 01:54:44;;;;;;;6.78;6.15;;;;;;;;;;5285175;28;20060;-72
2023/08/25 01:57:16;;;;;;;7.20;6.60;;;;;;;;;;5285612;28;20044;-72
2023/08/25 01:59:48;;;;;;;7.88;7.28;;;;;;;;;;5284151;28;20082;-73
2023/08/25 02:02:19;;;;;;;8.05;7.10;;;;;;;;;;5285728;28;20021;-72
2023/08/25 02:04:50;;;;;;;8.57;7.77;;;;;;;;;;5284108;28;20087;-72
2023/08/25 02:07:23;;;;;;;7.77;7.07;;;;;;;;;;5285500;28;20367;-72
2023/08/25 02:09:55;;;;;;;9.27;7.65;;;;;;;;;;5284759;28;20282;-73
2023/08/25 02:12:26;;;;;;;9.55;8.63;;;;;;;;;;5284140;28;20025;-72
2023/08/25 02:14:57;;;;;;;9.13;8.35;;;;;;;;;;5285065;28;20533;-72
2023/08/25 02:17:28;;;;;;;9.47;8.60;;;;;;;;;;5284832;28;20017;-73
2023/08/25 02:20:00;;;;;;;10.70;9.80;;;;;;;;;;5283795;28;20346;-73
2023/08/25 02:22:31;;;;;;;10.45;9.60;;;;;;;;;;5284280;28;20111;-74
2023/08/25 02:25:03;;;;;;;11.45;10.55;;;;;;;;;;5285164;28;20043;-73
2023/08/25 02:27:34;;;;;;;11.07;10.18;;;;;;;;;;5283371;28;20054;-74
2023/08/25 02:30:06;;;;;;;11.05;10.18;;;;;;;;;;5285029;28;20451;-73
2023/08/25 02:32:37;;;;;;;10.90;9.82;;;;;;;;;;5284254;28;20024;-73
2023/08/25 02:35:08;;;;;;;11.07;10.07;;;;;;;;;;5283913;28;20021;-73
2023/08/25 02:37:55;;;;;;;11.50;10.35;;;;;;;;;;5284367;28;20066;-73
2023/08/25 02:40:27;;;;;;;11.82;10.63;;;;;;;;;;5283636;28;20070;-73
2023/08/25 02:42:59;;;;;;;10.95;9.95;;;;;;;;;;5284336;28;20027;-73
2023/08/25 02:45:30;;;;;;;11.52;10.70;;;;;;;;;;5283642;28;20017;-74
2023/08/25 02:48:02;;;;;;;12.85;10.63;;;;;;;;;;5283516;28;20012;-73
2023/08/25 02:50:34;;;;;;;11.73;10.75;;;;;;;;;;5283723;28;20127;-73
2023/08/25 02:53:05;;;;;;;12.90;11.60;;;;;;;;;;5284506;28;20044;-73
2023/08/25 02:55:37;;;;;;;12.10;11.18;;;;;;;;;;5282953;28;20023;-73
2023/08/25 02:58:08;;;;;;;12.57;11.45;;;;;;;;;;5284233;28;20387;-73
2023/08/25 03:00:40;;;;;;;12.65;11.45;;;;;;;;;;5283246;28;20012;-73
2023/08/25 03:03:11;;;;;;;12.02;11.15;;;;;;;;;;5283387;28;20024;-73
2023/08/25 03:05:42;;;;;;;12.97;11.87;;;;;;;;;;5283335;28;20606;-73
2023/08/25 03:08:15;;;;;;;13.33;12.00;;;;;;;;;;5283253;28;20306;-73
2023/08/25 03:10:46;;;;;;;13.15;12.05;;;;;;;;;;5283599;28;20255;-73
2023/08/25 03:13:18;;;;;;;12.02;11.02;;;;;;;;;;5284163;28;20026;-73
2023/08/25 03:15:51;;;;;;;13.75;12.65;;;;;;;;;;5282576;28;20024;-73
2023/08/25 03:18:23;;;;;;;13.73;12.52;;;;;;;;;;5283709;28;20074;-73
2023/08/25 03:20:54;;;;;;;13.52;12.43;;;;;;;;;;5283751;28;20020;-73
2023/08/25 03:23:25;;;;;;;13.38;12.27;;;;;;;;;;5282829;28;20344;-73
2023/08/25 03:25:56;;;;;;;12.77;11.40;;;;;;;;;;5283277;28;20028;-73
2023/08/25 03:28:27;;;;;;;13.20;12.10;;;;;;;;;;5283084;28;20307;-73
2023/08/25 03:30:59;;;;;;;13.43;12.20;;;;;;;;;;5282832;28;20661;-73
2023/08/25 03:33:30;;;;;;;13.87;12.67;;;;;;;;;;5282757;28;20275;-73
2023/08/25 03:36:01;;;;;;;14.23;12.45;;;;;;;;;;5283339;28;20261;-73
2023/08/25 03:38:32;;;;;;;13.73;11.88;;;;;;;;;;5281872;28;20403;-73
2023/08/25 03:41:03;;;;;;;13.82;12.73;;;;;;;;;;5283471;28;20028;-73
2023/08/25 03:43:36;;;;;;;13.23;12.10;;;;;;;;;;5281940;28;20027;-73
2023/08/25 03:46:08;;;;;;;13.77;12.57;;;;;;;;;;5283307;28;20274;-73
2023/08/25 03:48:39;;;;;;;13.77;12.73;;;;;;;;;;5282960;28;20016;-73
2023/08/25 03:51:10;;;;;;;14.80;13.50;;;;;;;;;;5282507;28;20024;-73
2023/08/25 03:53:41;;;;;;;14.37;13.17;;;;;;;;;;5282506;28;20352;-73
2023/08/25 03:56:12;;;;;;;15.30;13.98;;;;;;;;;;5283047;28;20570;-73
2023/08/25 03:58:45;;;;;;;14.25;13.05;;;;;;;;;;5281477;28;20024;-73
2023/08/25 04:01:16;;;;;;;13.93;12.77;;;;;;;;;;5282775;28;20040;-73
2023/08/25 04:03:47;;;;;;;14.77;13.38;;;;;;;;;;5282360;28;20051;-74
2023/08/25 04:06:18;;;;;;;14.70;13.27;;;;;;;;;;5282199;28;20044;-73
2023/08/25 04:08:49;;;;;;;14.40;13.10;;;;;;;;;;5282336;28;20278;-73
2023/08/25 04:11:21;;;;;;;15.03;13.83;;;;;;;;;;5281287;28;20267;-74
2023/08/25 04:13:52;;;;;;;15.60;14.13;;;;;;;;;;5282305;28;20672;-73
2023/08/25 04:16:23;;;;;;;16.20;14.90;;;;;;;;;;5282502;28;20285;-73
2023/08/25 04:18:54;;;;;;;14.93;13.73;;;;;;;;;;5281630;28;20275;-73
2023/08/25 04:21:25;;;;;;;14.70;13.40;;;;;;;;;;5282146;28;20274;-73
2023/08/25 04:23:57;;;;;;;16.37;14.97;;;;;;;;;;5282074;28;20024;-73
2023/08/25 04:26:28;;;;;;;15.38;14.15;;;;;;;;;;5281369;28;20344;-73
2023/08/25 04:28:59;;;;;;;15.98;14.70;;;;;;;;;;5282137;28;20016;-73
2023/08/25 04:31:30;;;;;;;15.07;13.88;;;;;;;;;;5281816;28;20459;-74
2023/08/25 04:34:02;;;;;;;15.13;13.73;;;;;;;;;;5281400;28;20016;-72
2023/08/25 04:36:34;;;;;;;15.50;14.00;;;;;;;;;;5281736;28;20361;-73
2023/08/25 04:39:05;;;;;;;16.02;14.60;;;;;;;;;;5281945;28;20024;-72
2023/08/25 04:41:36;;;;;;;16.15;14.55;;;;;;;;;;5280392;28;20016;-72
2023/08/25 04:44:08;;;;;;;16.38;14.85;;;;;;;;;;5281920;28;20455;-72
2023/08/25 04:46:39;;;;;;;16.17;14.73;;;;;;;;;;5280563;28;20033;-72
2023/08/25 04:49:10;;;;;;;15.75;14.38;;;;;;;;;;5282148;28;20012;-73
2023/08/25 04:51:42;;;;;;;15.75;14.50;;;;;;;;;;5281358;28;20029;-72
2023/08/25 04:54:13;;;;;;;17.55;15.80;;;;;;;;;;5281005;28;20031;-73
2023/08/25 04:56:45;;;;;;;15.98;14.52;;;;;;;;;;5281013;28;20378;-73
2023/08/25 04:59:16;;;;;;;16.60;14.90;;;;;;;;;;5281908;28;20017;-72
2023/08/25 05:01:47;;;;;;;14.87;13.37;;;;;;;;;;5280251;28;20020;-73
2023/08/25 05:04:19;;;;;;;16.07;14.57;;;;;;;;;;5282070;28;20840;-73
2023/08/25 05:06:50;;;;;;;14.97;13.63;;;;;;;;;;5280760;28;20376;-72
2023/08/25 05:09:21;;;;;;;15.30;14.00;;;;;;;;;;5280728;28;20267;-72
2023/08/25 05:11:52;;;;;;;15.65;14.25;;;;;;;;;;5281368;28;20287;-72
2023/08/25 05:14:23;;;;;;;15.18;13.88;;;;;;;;;;5281473;28;20059;-73
2023/08/25 05:16:55;;;;;;;15.85;14.55;;;;;;;;;;5280588;28;20016;-73
2023/08/25 05:19:26;;;;;;;14.57;13.27;;;;;;;;;;5281537;28;20429;-73
2023/08/25 05:21:57;;;;;;;15.37;14.07;;;;;;;;;;5280922;28;20278;-72
2023/08/25 05:24:28;;;;;;;15.10;14.00;;;;;;;;;;5285648;28;20266;-73
2023/08/25 05:26:59;;;;;;;14.27;12.98;;;;;;;;;;5284330;28;20717;-73
2023/08/25 05:29:31;;;;;;;13.50;12.40;;;;;;;;;;5284382;28;20467;-73
2023/08/25 05:32:02;;;;;;;13.70;12.60;;;;;;;;;;5285688;28;20670;-72
2023/08/25 05:34:34;;;;;;;13.18;11.98;;;;;;;;;;5285342;28;20274;-73
2023/08/25 05:37:05;;;;;;;12.45;11.35;;;;;;;;;;5284776;28;20531;-73
2023/08/25 05:39:37;;;;;;;12.60;10.75;;;;;;;;;;5285146;28;20021;-73
2023/08/25 05:42:08;;;;;;;10.85;9.93;;;;;;;;;;5285549;28;20020;-72
2023/08/25 05:44:39;;;;;;;10.07;9.07;;;;;;;;;;5284138;28;20021;-72
2023/08/25 05:47:10;;;;;;;9.50;8.70;;;;;;;;;;5285873;28;20118;-72
2023/08/25 05:49:41;;;;;;;9.38;8.23;;;;;;;;;;5285077;28;20320;-72
2023/08/25 05:52:13;;;;;;;7.35;6.65;;;;;;;;;;5284673;28;20040;-73
2023/08/25 05:54:44;;;;;;;7.20;6.50;;;;;;;;;;5284753;28;20051;-72
2023/08/25 05:57:15;;;;;;;7.47;5.67;;;;;;;;;;5284288;28;20278;-72
2023/08/25 05:59:46;;;;;;;6.17;5.57;;;;;;;;;;5284765;28;20267;-72
2023/08/25 06:02:17;;;;;;;6.70;5.20;;;;;;;;;;5285180;28;20266;-72
2023/08/25 06:04:49;;;;;;;5.95;4.90;;;;;;;;;;5283582;28;20263;-72
2023/08/25 06:07:20;;;;;;;5.90;5.05;;;;;;;;;;5284911;28;20107;-72
2023/08/25 06:09:51;;;;;;;10.07;5.33;;;;;;;;;;5284264;28;20117;-72
2023/08/25 06:12:22;;;;;;;5.93;4.57;;;;;;;;;;5284404;28;20275;-72
2023/08/25 06:14:53;;;;;;;5.40;4.63;;;;;;;;;;5284528;28;20269;-72
2023/08/25 06:17:25;;;;;;;7.93;4.80;;;;;;;;;;5284784;28;20258;-72
2023/08/25 06:19:56;;;;;;;6.80;4.10;;;;;;;;;;5283706;28;20262;-72
2023/08/25 06:22:27;;;;;;;6.13;4.57;;;;;;;;;;5284726;28;20024;-73
2023/08/25 06:24:58;;;;;;;7.20;4.72;;;;;;;;;;5283823;28;20404;-73
2023/08/25 06:27:29;;;;;;;8.00;4.83;;;;;;;;;;5284106;28;20039;-72
2023/08/25 06:30:02;;;;;;;5.32;4.68;;;;;;;;;;5284265;28;20313;-73
2023/08/25 06:32:34;;;;;;;7.53;5.20;;;;;;;;;;5282894;28;20044;-73
2023/08/25 06:35:05;;;;;;;7.25;5.53;;;;;;;;;;5283844;28;20517;-71
2023/08/25 06:37:37;;;;;;;5.72;4.95;;;;;;;;;;5283758;28;20048;-72
2023/08/25 06:40:08;;;;;;;9.82;4.47;;;;;;;;;;5283456;28;20031;-71
2023/08/25 06:42:39;;;;;;;4.90;4.38;;;;;;;;;;5283869;28;20456;-72
2023/08/25 06:45:11;;;;;;;7.03;4.68;;;;;;;;;;5284202;28;20019;-71
2023/08/25 06:47:44;;;;;;;4.97;4.47;;;;;;;;;;5282728;28;20520;-72
2023/08/25 06:50:15;;;;;;;5.68;4.60;;;;;;;;;;5284219;28;20016;-72
2023/08/25 06:52:46;;;;;;;6.20;4.63;;;;;;;;;;5283610;28;20016;-72
2023/08/25 06:55:18;;;;;;;7.80;4.50;;;;;;;;;;5282807;28;20048;-72
2023/08/25 06:57:49;;;;;;;5.68;4.45;;;;;;;;;;5283586;28;20828;-71
2023/08/25 07:00:21;;;;;;;6.50;4.82;;;;;;;;;;5283054;28;20047;-71
2023/08/25 07:02:52;;;;;;;5.53;3.95;;;;;;;;;;5283299;28;20069;-71
2023/08/25 07:05:26;;;;;;;7.03;4.83;;;;;;;;;;5283615;28;20395;-73
2023/08/25 07:07:58;;;;;;;5.18;4.70;;;;;;;;;;5282825;28;20325;-72
2023/08/25 07:10:29;;;;;;;5.60;5.15;;;;;;;;;;5283453;28;20016;-73
2023/08/25 07:13:00;;;;;;;5.90;5.37;;;;;;;;;;5284148;28;20070;-72
2023/08/25 07:15:32;;;;;;;7.33;6.63;;;;;;;;;;5282620;28;20294;-73
2023/08/25 07:18:03;;;;;;;6.93;6.32;;;;;;;;;;5283685;28;20282;-73
2023/08/25 07:20:35;;;;;;;7.15;6.20;;;;;;;;;;5283305;28;20390;-72
2023/08/25 07:23:06;;;;;;;8.63;6.80;;;;;;;;;;5283210;28;20044;-72
2023/08/25 07:25:38;;;;;;;8.50;6.97;;;;;;;;;;5282783;28;20028;-72
2023/08/25 07:28:10;;;;;;;27.60;7.82;;;;;;;;;;5283801;28;20043;-72
2023/08/25 07:30:41;;;;;;;10.75;5.75;;;;;;;;;;5282439;28;20017;-73
2023/08/25 07:33:12;;;;;;;8.07;6.13;;;;;;;;;;5283691;28;20086;-72
2023/08/25 07:35:44;;;;;;;15.70;7.30;;;;;;;;;;5282286;28;20328;-71
2023/08/25 07:38:15;;;;;;;10.68;5.60;;;;;;;;;;5283400;28;20675;-70
2023/08/25 07:40:46;;;;;;;12.30;6.35;;;;;;;;;;5282846;28;20019;-71
2023/08/25 07:43:17;;;;;;;7.80;5.90;;;;;;;;;;5282713;28;20483;-70
2023/08/25 07:45:48;;;;;;;7.83;6.07;;;;;;;;;;5281711;28;20025;-71
2023/08/25 07:48:20;;;;;;;7.95;5.82;;;;;;;;;;5283133;28;20357;-71
2023/08/25 07:50:51;;;;;;;7.35;5.50;;;;;;;;;;5281986;28;20398;-72
2023/08/25 07:53:23;;;;;;;7.20;5.57;;;;;;;;;;5283100;28;20055;-73
2023/08/25 07:55:54;;;;;;;9.10;6.10;;;;;;;;;;5282518;28;20124;-74
2023/08/25 07:58:26;;;;;;;6.50;5.80;;;;;;;;;;5282215;28;20043;-73
2023/08/25 08:00:58;;;;;;;9.00;6.38;;;;;;;;;;5282960;28;20307;-74
2023/08/25 08:03:31;;;;;;;7.72;5.18;;;;;;;;;;5281582;28;20047;-73
2023/08/25 08:06:02;;;;;;;5.68;5.03;;;;;;;;;;5282774;28;20484;-72
2023/08/25 08:08:33;;;;;;;6.47;5.22;;;;;;;;;;5277662;28;20040;-74
2023/08/25 08:11:04;;;;;;;6.07;4.85;;;;;;;;;;5280536;28;20020;-71
2023/08/25 08:13:36;;;;;;;6.88;5.60;;;;;;;;;;5281752;28;20424;-74
2023/08/25 08:16:07;;;;;;;7.40;5.63;;;;;;;;;;5278253;28;20020;-73
2023/08/25 08:18:38;;;;;;;5.57;5.10;;;;;;;;;;5279952;28;20466;-72
2023/08/25 08:21:09;;;;;;;6.28;5.53;;;;;;;;;;5281417;28;20119;-73
2023/08/25 08:23:40;;;;;;;8.52;5.57;;;;;;;;;;5281408;28;20067;-73
2023/08/25 08:26:12;;;;;;;5.07;4.68;;;;;;;;;;5280172;28;20020;-73
2023/08/25 08:28:44;;;;;;;6.78;5.97;;;;;;;;;;5270082;28;20047;-73
2023/08/25 08:31:18;;;;;;;6.07;5.57;;;;;;;;;;5263729;28;20021;-72
2023/08/25 08:33:49;;;;;;;7.40;6.72;;;;;;;;;;5276662;28;20385;-73
2023/08/25 08:36:20;;;;;;;8.15;7.30;;;;;;;;;;5282077;28;20100;-73
2023/08/25 08:38:52;;;;;;;8.10;7.33;;;;;;;;;;5280786;28;20021;-73
2023/08/25 08:41:24;;;;;;;8.77;7.35;;;;;;;;;;5280199;28;20471;-73
2023/08/25 08:43:58;;;;;;;7.32;6.75;;;;;;;;;;5279549;28;20016;-73
2023/08/25 08:46:30;;;;;;;7.65;6.95;;;;;;;;;;5280008;28;20036;-73
2023/08/25 08:49:02;;;;;;;8.90;8.00;;;;;;;;;;5281590;28;20448;-73
2023/08/25 08:51:34;;;;;;;12.35;7.50;;;;;;;;;;5281099;28;20024;-73
2023/08/25 08:54:06;;;;;;;8.75;7.13;;;;;;;;;;5280993;28;20031;-72
2023/08/25 08:56:37;;;;;;;7.78;7.07;;;;;;;;;;5281189;28;20463;-72
2023/08/25 08:59:08;;;;;;;13.68;8.15;;;;;;;;;;5282171;28;20044;-72
2023/08/25 09:01:40;;;;;;;9.63;8.70;;;;;;;;;;5280554;28;20099;-72
2023/08/25 09:04:12;;;;;;;10.88;9.77;;;;;;;;;;5281998;28;20025;-72
2023/08/25 09:06:43;;;;;;;9.40;8.40;;;;;;;;;;5280308;28;20072;-72
2023/08/25 09:09:18;;;;;;;9.43;8.65;;;;;;;;;;5282193;28;20098;-72
2023/08/25 09:11:50;;;;;;;10.13;9.13;;;;;;;;;;5281357;28;20052;-73
2023/08/25 09:14:25;;;;;;;9.70;8.90;;;;;;;;;;5280959;28;20038;-73
2023/08/25 09:16:57;;;;;;;9.02;8.13;;;;;;;;;;5281347;28;20032;-72
2023/08/25 09:19:29;;;;;;;9.27;8.50;;;;;;;;;;5281600;28;20017;-73
2023/08/25 09:22:01;;;;;;;9.38;8.35;;;;;;;;;;5280634;28;20371;-73
2023/08/25 09:24:36;;;;;;;9.52;8.48;;;;;;;;;;5280891;28;20130;-71
2023/08/25 09:27:19;;;;;;;10.23;9.43;;;;;;;;;;5281360;28;20070;-70
2023/08/25 09:30:09;;;;;;;10.27;9.23;;;;;;;;;;5280043;28;20443;-72
2023/08/25 09:32:40;;;;;;;10.13;9.32;;;;;;;;;;5280662;28;20021;-71
2023/08/25 09:35:12;;;;;;;9.55;8.85;;;;;;;;;;5281039;28;20415;-72
2023/08/25 09:37:45;;;;;;;8.85;8.05;;;;;;;;;;5280813;28;20060;-70
2023/08/25 09:40:17;;;;;;;9.55;8.75;;;;;;;;;;5281296;28;20020;-71
2023/08/25 09:42:48;;;;;;;10.50;9.73;;;;;;;;;;5280377;28;20390;-70
2023/08/25 09:45:19;;;;;;;11.00;10.15;;;;;;;;;;5281706;28;20021;-71
2023/08/25 09:47:51;;;;;;;10.75;9.75;;;;;;;;;;5280868;28;20037;-70
2023/08/25 09:50:22;;;;;;;9.07;8.35;;;;;;;;;;5280601;28;20013;-71
2023/08/25 09:52:54;;;;;;;11.02;10.23;;;;;;;;;;5280879;28;20047;-71
2023/08/25 09:55:25;;;;;;;10.55;9.75;;;;;;;;;;5280943;28;20048;-72
2023/08/25 09:57:56;;;;;;;11.55;10.55;;;;;;;;;;5280559;28;20017;-72
2023/08/25 10:00:28;;;;;;;10.27;9.48;;;;;;;;;;5281180;28;20025;-73
2023/08/25 10:03:01;;;;;;;10.10;9.40;;;;;;;;;;5280428;28;20040;-72
2023/08/25 10:05:33;;;;;;;10.25;9.35;;;;;;;;;;5280841;28;20047;-73
2023/08/25 10:08:06;;;;;;;9.63;8.85;;;;;;;;;;5281364;28;20086;-71
2023/08/25 10:10:38;;;;;;;9.20;8.52;;;;;;;;;;5282984;28;20383;-73
2023/08/25 10:13:12;;;;;;;7.50;7.00;;;;;;;;;;5285200;28;20096;-72
2023/08/25 10:15:45;;;;;;;8.15;7.45;;;;;;;;;;5284367;28;20143;-71
2023/08/25 10:18:16;;;;;;;7.90;7.32;;;;;;;;;;5284347;28;20021;-71
2023/08/25 10:20:48;;;;;;;7.72;7.13;;;;;;;;;;5284454;28;20013;-72
2023/08/25 10:23:21;;;;;;;7.97;7.38;;;;;;;;;;5285049;28;20025;-72
2023/08/25 10:25:52;;;;;;;7.70;7.10;;;;;;;;;;5283348;28;20009;-72
2023/08/25 10:28:23;;;;;;;7.68;7.07;;;;;;;;;;5284664;28;20025;-73
2023/08/25 10:30:55;;;;;;;6.50;6.07;;;;;;;;;;5284498;28;20078;-74
2023/08/25 10:33:27;;;;;;;6.72;5.97;;;;;;;;;;5283702;28;20095;-74
2023/08/25 10:36:04;;;;;;;7.82;7.05;;;;;;;;;;5284115;28;20023;-73
2023/08/25 10:38:36;;;;;;;6.43;5.97;;;;;;;;;;5283012;28;20028;-72
2023/08/25 10:41:15;;;;;;;6.88;5.93;;;;;;;;;;5284625;28;20103;-73
2023/08/25 10:43:49;;;;;;;7.18;6.57;;;;;;;;;;5283870;28;20016;-70
2023/08/25 10:46:22;;;;;;;7.47;6.78;;;;;;;;;;5283790;28;20028;-70
2023/08/25 10:49:03;;;;;;;6.57;6.07;;;;;;;;;;5283541;28;20013;-72
2023/08/25 10:51:34;;;;;;;7.93;7.32;;;;;;;;;;5283952;28;20023;-72
2023/08/25 10:54:15;;;;;;;8.43;7.63;;;;;;;;;;5283531;28;20017;-72
2023/08/25 10:56:46;;;;;;;8.50;7.70;;;;;;;;;;5283752;28;20016;-71
2023/08/25 10:59:20;;;;;;;8.50;7.80;;;;;;;;;;5283328;28;20380;-71
2023/08/25 11:01:57;;;;;;;8.80;8.10;;;;;;;;;;5283368;28;20017;-72
2023/08/25 11:04:29;;;;;;;9.80;9.02;;;;;;;;;;5283751;28;20086;-73
2023/08/25 11:07:00;;;;;;;10.10;9.23;;;;;;;;;;5282574;28;20045;-71
2023/08/25 11:09:32;;;;;;;9.18;8.38;;;;;;;;;;5283097;28;20020;-72
2023/08/25 11:12:06;;;;;;;8.80;8.15;;;;;;;;;;5283865;28;20032;-72
2023/08/25 11:14:38;;;;;;;9.40;8.70;;;;;;;;;;5282607;28;20012;-72
2023/08/25 11:17:09;;;;;;;10.32;9.43;;;;;;;;;;5284042;28;20021;-71
2023/08/25 11:19:42;;;;;;;10.35;9.27;;;;;;;;;;5283007;28;20052;-71
2023/08/25 11:22:13;;;;;;;11.20;10.10;;;;;;;;;;5282872;28;20024;-71
2023/08/25 11:24:44;;;;;;;11.27;10.35;;;;;;;;;;5283112;28;20419;-70
2023/08/25 11:27:16;;;;;;;11.20;10.40;;;;;;;;;;5283096;28;20033;-69
2023/08/25 11:29:49;;;;;;;14.10;12.73;;;;;;;;;;5281662;28;20644;-71
2023/08/25 11:32:20;;;;;;;12.57;11.45;;;;;;;;;;5282881;28;20028;-71
2023/08/25 11:34:51;;;;;;;12.40;11.20;;;;;;;;;;5281383;28;20467;-71
2023/08/25 11:37:24;;;;;;;13.07;11.98;;;;;;;;;;5283382;28;20286;-72
2023/08/25 11:39:55;;;;;;;12.90;11.95;;;;;;;;;;5282082;28;20123;-71
2023/08/25 11:42:26;;;;;;;12.90;11.88;;;;;;;;;;5281805;28;20111;-72
2023/08/25 11:44:58;;;;;;;14.20;12.95;;;;;;;;;;5282859;28;20043;-72
2023/08/25 11:47:29;;;;;;;13.82;12.73;;;;;;;;;;5282462;28;20119;-72
2023/08/25 11:50:02;;;;;;;15.27;14.10;;;;;;;;;;5282270;28;20012;-72
2023/08/25 11:52:34;;;;;;;15.98;14.48;;;;;;;;;;5282133;28;20078;-71
2023/08/25 11:55:06;;;;;;;15.65;14.25;;;;;;;;;;5282913;28;20370;-71
2023/08/25 11:57:38;;;;;;;14.38;13.10;;;;;;;;;;5281482;28;20475;-73
2023/08/25 12:00:10;;;;;;;16.85;15.50;;;;;;;;;;5282558;28;20017;-75
2023/08/25 12:02:41;;;;;;;17.67;16.27;;;;;;;;;;5281185;28;20115;-73
2023/08/25 12:05:12;;;;;;;19.30;17.60;;;;;;;;;;5282203;28;20510;-73
2023/08/25 12:07:43;;;;;;;18.75;17.25;;;;;;;;;;5281783;28;20298;-73
2023/08/25 12:10:18;;;;;;;20.13;18.43;;;;;;;;;;5281911;28;20017;-73
2023/08/25 12:12:52;;;;;;;20.00;18.42;;;;;;;;;;5282394;28;20324;-73
2023/08/25 12:15:24;;;;;;;20.05;18.30;;;;;;;;;;5282354;28;20104;-73
2023/08/25 12:17:58;;;;;;;20.65;18.83;;;;;;;;;;5281798;28;20104;-73
2023/08/25 12:20:30;;;;;;;22.10;20.30;;;;;;;;;;5281497;28;20024;-73
2023/08/25 12:23:01;;;;;;;21.30;19.40;;;;;;;;;;5280451;28;20016;-73
2023/08/25 12:25:32;;;;;;;21.67;19.88;;;;;;;;;;5278962;28;20012;-73
2023/08/25 12:28:04;;;;;;;21.58;19.88;;;;;;;;;;5280351;28;20529;-73
2023/08/25 12:30:35;;;;;;;20.50;18.75;;;;;;;;;;5279745;28;20008;-73
2023/08/25 12:33:06;;;;;;;23.33;21.53;;;;;;;;;;5279157;28;20016;-73
2023/08/25 12:35:37;;;;;;;22.55;20.75;;;;;;;;;;5280386;28;20791;-73
2023/08/25 12:38:09;;;;;;;23.65;21.80;;;;;;;;;;5281441;28;20016;-73
2023/08/25 12:40:40;;;;;;;22.42;20.58;;;;;;;;;;5281538;28;20016;-74
2023/08/25 12:43:11;;;;;;;22.50;20.65;;;;;;;;;;5282134;28;20019;-74
2023/08/25 12:45:43;;;;;;;21.80;20.02;;;;;;;;;;5280588;28;20025;-75
2023/08/25 12:48:14;;;;;;;22.38;20.75;;;;;;;;;;5282064;28;20083;-71
2023/08/25 12:50:45;;;;;;;22.30;20.30;;;;;;;;;;5281137;28;20031;-72
2023/08/25 12:53:16;;;;;;;19.50;17.92;;;;;;;;;;5280987;28;20443;-73
2023/08/25 12:55:48;;;;;;;21.67;20.17;;;;;;;;;;5280907;28;20513;-72
2023/08/25 12:58:19;;;;;;;18.27;16.88;;;;;;;;;;5282056;28;20027;-73
2023/08/25 13:00:50;;;;;;;19.90;18.40;;;;;;;;;;5280310;28;20017;-73
2023/08/25 13:03:21;;;;;;;21.67;19.97;;;;;;;;;;5281202;28;20475;-72
2023/08/25 13:05:52;;;;;;;20.65;19.05;;;;;;;;;;5280211;28;20286;-72
2023/08/25 13:08:24;;;;;;;19.90;18.40;;;;;;;;;;5281523;28;20152;-73
2023/08/25 13:10:55;;;;;;;18.73;17.02;;;;;;;;;;5279164;28;20263;-73
2023/08/25 13:13:26;;;;;;;19.67;18.23;;;;;;;;;;5278118;28;20070;-73
2023/08/25 13:15:57;;;;;;;18.40;17.10;;;;;;;;;;5278910;28;20273;-72
2023/08/25 13:18:28;;;;;;;19.17;17.77;;;;;;;;;;5278972;28;20286;-72
2023/08/25 13:21:00;;;;;;;19.20;17.53;;;;;;;;;;5278373;28;20121;-72
2023/08/25 13:23:31;;;;;;;17.55;16.33;;;;;;;;;;5279445;28;20267;-72
2023/08/25 13:26:02;;;;;;;17.05;15.90;;;;;;;;;;5281105;28;20107;-70
2023/08/25 13:28:33;;;;;;;17.23;15.93;;;;;;;;;;5280386;28;20105;-71
2023/08/25 13:31:05;;;;;;;16.73;15.43;;;;;;;;;;5281611;28;20042;-73
2023/08/25 13:33:36;;;;;;;17.23;15.83;;;;;;;;;;5280587;28;20269;-72
2023/08/25 13:36:08;;;;;;;16.73;15.53;;;;;;;;;;5280959;28;20790;-72
2023/08/25 13:38:39;;;;;;;16.13;14.85;;;;;;;;;;5280726;28;20281;-71
2023/08/25 13:41:10;;;;;;;16.57;15.37;;;;;;;;;;5279881;28;20017;-71
2023/08/25 13:43:42;;;;;;;16.07;14.87;;;;;;;;;;5282516;28;20349;-73
2023/08/25 13:46:13;;;;;;;17.93;16.53;;;;;;;;;;5285110;28;20769;-73
2023/08/25 13:48:44;;;;;;;15.80;14.67;;;;;;;;;;5281359;28;20457;-72
2023/08/25 13:51:15;;;;;;;14.63;13.50;;;;;;;;;;5284890;28;20373;-73
2023/08/25 13:53:46;;;;;;;16.15;14.95;;;;;;;;;;5284676;28;20266;-72
2023/08/25 13:56:18;;;;;;;17.07;15.77;;;;;;;;;;5284367;28;20017;-72
2023/08/25 13:58:49;;;;;;;16.87;15.57;;;;;;;;;;5284769;28;21104;-72
2023/08/25 14:01:20;;;;;;;15.17;13.87;;;;;;;;;;5284580;28;20267;-72
2023/08/25 14:03:51;;;;;;;15.80;14.60;;;;;;;;;;5282983;28;20270;-73
2023/08/25 14:06:22;;;;;;;18.13;16.63;;;;;;;;;;5284645;28;20048;-73
2023/08/25 14:08:54;;;;;;;19.55;17.85;;;;;;;;;;5283963;28;20271;-73
2023/08/25 14:11:25;;;;;;;20.83;19.08;;;;;;;;;;5283622;28;20020;-72
2023/08/25 14:13:56;;;;;;;22.30;20.17;;;;;;;;;;5284708;28;20100;-73
2023/08/25 14:16:27;;;;;;;22.50;20.52;;;;;;;;;;5283659;28;20021;-72
2023/08/25 14:18:59;;;;;;;23.30;21.00;;;;;;;;;;5284151;28;20099;-73
2023/08/25 14:21:30;;;;;;;20.67;18.93;;;;;;;;;;5284044;28;20066;-73
2023/08/25 14:24:01;;;;;;;23.40;21.20;;;;;;;;;;5272466;28;20016;-72
2023/08/25 14:26:32;;;;;;;19.88;17.92;;;;;;;;;;5269284;28;20140;-72
2023/08/25 14:29:05;;;;;;;22.27;20.17;;;;;;;;;;5262468;28;20519;-73
2023/08/25 14:31:36;;;;;;;24.70;22.30;;;;;;;;;;5261164;28;20398;-74
2023/08/25 14:34:08;;;;;;;25.92;23.77;;;;;;;;;;5262802;28;20100;-73
2023/08/25 14:36:39;;;;;;;25.98;23.73;;;;;;;;;;5262033;28;20028;-73
2023/08/25 14:39:10;;;;;;;25.00;22.70;;;;;;;;;;5261690;28;20017;-73
2023/08/25 14:41:42;;;;;;;24.20;21.93;;;;;;;;;;5260809;28;20099;-73
2023/08/25 14:44:13;;;;;;;23.08;20.80;;;;;;;;;;5260917;28;20370;-74
2023/08/25 14:46:44;;;;;;;20.95;18.95;;;;;;;;;;5260673;28;20032;-73
2023/08/25 14:49:16;;;;;;;21.98;19.88;;;;;;;;;;5261188;28;20085;-72
2023/08/25 14:51:48;;;;;;;22.83;20.52;;;;;;;;;;5261591;28;20478;-72
2023/08/25 14:54:19;;;;;;;26.17;23.57;;;;;;;;;;5262101;28;20017;-73
2023/08/25 14:56:50;;;;;;;25.83;23.23;;;;;;;;;;5261175;28;20275;-73